Campanya meteocatpedra

Dades de l'estació automàtica Port de Barcelona - Bocana Sud

?
?
Resum diari 20:30 TU
Dades diàries de l'estació meteorològica
Ratxa màxima del vent (10 m) 34.6 km/h - 202º 15:27 TU

El tram horari està expressat en Temps Universal (TU). Cal sumar una hora en horari d'hivern i dues en horari d'estiu per passar a l'hora oficial.

Port de Barcelona - Bocana Sud

Metadades estació meteorol´gica
Municipi El Prat de Llobregat
Comarca Baix Llobregat
Altitud 3 m
Data alta 08.04.2015
Estat actual Operativa
Dades de període
Període
TU
VVM (10 m)
km/h
DVM (10 m)
graus
VVX (10 m)
km/h
00:00 - 00:30 8.3 270 10.4
00:30 - 01:00 7.2 270 9.7
01:00 - 01:30 8.3 273 10.4
01:30 - 02:00 5.4 274 7.9
02:00 - 02:30 7.2 272 9.4
02:30 - 03:00 8.3 276 11.5
03:00 - 03:30 9.0 289 11.9
03:30 - 04:00 9.4 273 12.2
04:00 - 04:30 11.5 270 13.3
04:30 - 05:00 9.0 272 13.7
05:00 - 05:30 9.7 269 14.4
05:30 - 06:00 9.7 270 11.9
06:00 - 06:30 9.4 272 13.3
06:30 - 07:00 10.4 284 14.4
07:00 - 07:30 7.2 270 12.2
07:30 - 08:00 7.2 278 12.2
08:00 - 08:30 7.9 287 11.5
08:30 - 09:00 7.6 248 16.2
09:00 - 09:30 10.4 205 19.4
09:30 - 10:00 20.5 201 27.7
10:00 - 10:30 23.0 201 28.8
10:30 - 11:00 24.8 204 29.9
11:00 - 11:30 24.5 201 29.5
11:30 - 12:00 22.7 199 27.0
12:00 - 12:30 24.5 200 29.2
12:30 - 13:00 24.8 200 29.9
13:00 - 13:30 25.9 200 31.3
13:30 - 14:00 27.0 200 32.0
14:00 - 14:30 28.4 199 32.0
14:30 - 15:00 27.4 201 32.0
15:00 - 15:30 29.2 205 34.6
15:30 - 16:00 28.1 206 33.8
16:00 - 16:30 25.6 210 32.4
16:30 - 17:00 23.4 212 29.5
17:00 - 17:30 22.3 212 31.0
17:30 - 18:00 19.4 220 28.4
18:00 - 18:30 16.9 218 22.3
18:30 - 19:00 11.9 225 19.8
19:00 - 19:30 11.9 233 18.7
19:30 - 20:00 8.3 230 13.0
20:00 - 20:30 7.2 238 10.1
20:30 - 21:00 6.8 235 11.2

Les dades en taronja només han passat un control de qualitat automàtic. Resta pendent la seva validació definitiva.